sensor_id;sensor_type;location;lat;lon;timestamp;P1;durP1;ratioP1;P2;durP2;ratioP2
18997;SDS011;9632;51.018;4.284;2023-06-24T00:01:23;10.85;;;6.40;;
18997;SDS011;9632;51.018;4.284;2023-06-24T00:03:50;9.48;;;5.70;;
18997;SDS011;9632;51.018;4.284;2023-06-24T00:06:18;10.80;;;6.68;;
18997;SDS011;9632;51.018;4.284;2023-06-24T00:08:44;10.30;;;6.47;;
18997;SDS011;9632;51.018;4.284;2023-06-24T00:11:10;10.35;;;6.03;;
18997;SDS011;9632;51.018;4.284;2023-06-24T00:13:37;8.68;;;5.68;;
18997;SDS011;9632;51.018;4.284;2023-06-24T00:16:03;9.18;;;6.30;;
18997;SDS011;9632;51.018;4.284;2023-06-24T00:18:31;10.70;;;5.90;;
18997;SDS011;9632;51.018;4.284;2023-06-24T00:20:57;11.65;;;6.63;;
18997;SDS011;9632;51.018;4.284;2023-06-24T00:23:23;12.00;;;7.22;;
18997;SDS011;9632;51.018;4.284;2023-06-24T00:25:52;9.68;;;6.10;;
18997;SDS011;9632;51.018;4.284;2023-06-24T00:28:19;11.63;;;6.32;;
18997;SDS011;9632;51.018;4.284;2023-06-24T00:30:45;10.02;;;6.28;;
18997;SDS011;9632;51.018;4.284;2023-06-24T00:33:12;11.52;;;6.50;;
18997;SDS011;9632;51.018;4.284;2023-06-24T00:35:38;9.25;;;6.00;;
18997;SDS011;9632;51.018;4.284;2023-06-24T00:38:04;10.15;;;4.93;;
18997;SDS011;9632;51.018;4.284;2023-06-24T00:40:30;11.30;;;5.68;;
18997;SDS011;9632;51.018;4.284;2023-06-24T00:42:56;8.10;;;5.22;;
18997;SDS011;9632;51.018;4.284;2023-06-24T00:45:22;6.60;;;4.95;;
18997;SDS011;9632;51.018;4.284;2023-06-24T00:47:49;9.05;;;5.60;;
18997;SDS011;9632;51.018;4.284;2023-06-24T00:50:15;6.75;;;4.63;;
18997;SDS011;9632;51.018;4.284;2023-06-24T00:52:41;7.13;;;5.00;;
18997;SDS011;9632;51.018;4.284;2023-06-24T00:55:10;6.70;;;4.22;;
18997;SDS011;9632;51.018;4.284;2023-06-24T00:57:40;6.45;;;4.32;;
18997;SDS011;9632;51.018;4.284;2023-06-24T01:00:08;9.30;;;5.15;;
18997;SDS011;9632;51.018;4.284;2023-06-24T01:02:37;6.57;;;4.13;;
18997;SDS011;9632;51.018;4.284;2023-06-24T01:05:03;8.02;;;4.53;;
18997;SDS011;9632;51.018;4.284;2023-06-24T01:07:31;8.18;;;4.50;;
18997;SDS011;9632;51.018;4.284;2023-06-24T01:09:58;7.90;;;4.45;;
18997;SDS011;9632;51.018;4.284;2023-06-24T01:12:25;6.15;;;4.00;;
18997;SDS011;9632;51.018;4.284;2023-06-24T01:14:51;7.05;;;4.18;;
18997;SDS011;9632;51.018;4.284;2023-06-24T01:17:19;7.00;;;3.83;;
18997;SDS011;9632;51.018;4.284;2023-06-24T01:20:07;5.60;;;3.83;;
18997;SDS011;9632;51.018;4.284;2023-06-24T01:31:52;5.93;;;3.35;;
18997;SDS011;9632;51.018;4.284;2023-06-24T01:34:37;7.47;;;3.67;;
18997;SDS011;9632;51.018;4.284;2023-06-24T01:37:20;6.15;;;3.58;;
18997;SDS011;9632;51.018;4.284;2023-06-24T01:40:05;4.85;;;3.40;;
18997;SDS011;9632;51.018;4.284;2023-06-24T01:42:55;6.30;;;3.47;;
18997;SDS011;9632;51.018;4.284;2023-06-24T01:45:24;5.55;;;3.75;;
18997;SDS011;9632;51.018;4.284;2023-06-24T01:48:12;5.00;;;3.38;;
18997;SDS011;9632;51.018;4.284;2023-06-24T01:50:44;4.43;;;3.10;;
18997;SDS011;9632;51.018;4.284;2023-06-24T01:53:15;4.72;;;3.10;;
18997;SDS011;9632;51.018;4.284;2023-06-24T01:55:43;8.57;;;3.55;;
18997;SDS011;9632;51.018;4.284;2023-06-24T01:58:10;5.70;;;3.50;;
18997;SDS011;9632;51.018;4.284;2023-06-24T02:00:38;6.88;;;3.65;;
18997;SDS011;9632;51.018;4.284;2023-06-24T02:03:05;4.75;;;3.47;;
18997;SDS011;9632;51.018;4.284;2023-06-24T02:05:32;6.13;;;3.90;;
18997;SDS011;9632;51.018;4.284;2023-06-24T02:07:59;6.35;;;3.30;;
18997;SDS011;9632;51.018;4.284;2023-06-24T02:10:27;5.30;;;3.55;;
18997;SDS011;9632;51.018;4.284;2023-06-24T02:12:53;6.55;;;3.42;;
18997;SDS011;9632;51.018;4.284;2023-06-24T02:15:21;6.90;;;3.58;;
18997;SDS011;9632;51.018;4.284;2023-06-24T02:17:49;8.10;;;3.65;;
18997;SDS011;9632;51.018;4.284;2023-06-24T02:20:16;5.25;;;3.28;;
18997;SDS011;9632;51.018;4.284;2023-06-24T02:22:42;4.82;;;2.92;;
18997;SDS011;9632;51.018;4.284;2023-06-24T02:25:09;6.90;;;3.50;;
18997;SDS011;9632;51.018;4.284;2023-06-24T02:27:35;5.10;;;3.45;;
18997;SDS011;9632;51.018;4.284;2023-06-24T02:30:05;5.38;;;2.97;;
18997;SDS011;9632;51.018;4.284;2023-06-24T02:32:32;4.20;;;3.28;;
18997;SDS011;9632;51.018;4.284;2023-06-24T02:35:00;5.90;;;3.15;;
18997;SDS011;9632;51.018;4.284;2023-06-24T02:37:26;4.93;;;2.97;;
18997;SDS011;9632;51.018;4.284;2023-06-24T02:39:52;5.93;;;3.20;;
18997;SDS011;9632;51.018;4.284;2023-06-24T02:42:17;4.30;;;3.10;;
18997;SDS011;9632;51.018;4.284;2023-06-24T02:44:43;6.55;;;3.53;;
18997;SDS011;9632;51.018;4.284;2023-06-24T02:47:09;5.45;;;3.08;;
18997;SDS011;9632;51.018;4.284;2023-06-24T02:49:37;4.63;;;2.90;;
18997;SDS011;9632;51.018;4.284;2023-06-24T02:52:04;7.63;;;3.03;;
18997;SDS011;9632;51.018;4.284;2023-06-24T02:54:31;4.65;;;2.88;;
18997;SDS011;9632;51.018;4.284;2023-06-24T02:56:58;7.22;;;3.40;;
18997;SDS011;9632;51.018;4.284;2023-06-24T02:59:24;4.97;;;2.90;;
18997;SDS011;9632;51.018;4.284;2023-06-24T03:01:53;6.43;;;3.35;;
18997;SDS011;9632;51.018;4.284;2023-06-24T03:04:19;5.28;;;3.20;;
18997;SDS011;9632;51.018;4.284;2023-06-24T03:06:45;4.55;;;3.25;;
18997;SDS011;9632;51.018;4.284;2023-06-24T03:09:14;4.82;;;3.03;;
18997;SDS011;9632;51.018;4.284;2023-06-24T03:11:43;7.28;;;3.13;;
18997;SDS011;9632;51.018;4.284;2023-06-24T03:14:12;3.90;;;2.72;;
18997;SDS011;9632;51.018;4.284;2023-06-24T03:16:38;6.85;;;3.03;;
18997;SDS011;9632;51.018;4.284;2023-06-24T03:19:04;7.20;;;3.35;;
18997;SDS011;9632;51.018;4.284;2023-06-24T03:21:30;7.68;;;3.45;;
18997;SDS011;9632;51.018;4.284;2023-06-24T03:23:56;8.55;;;3.20;;
18997;SDS011;9632;51.018;4.284;2023-06-24T03:26:24;6.22;;;3.40;;
18997;SDS011;9632;51.018;4.284;2023-06-24T03:29:07;5.60;;;2.70;;
18997;SDS011;9632;51.018;4.284;2023-06-24T03:31:33;5.18;;;3.15;;
18997;SDS011;9632;51.018;4.284;2023-06-24T03:33:59;7.30;;;3.10;;
18997;SDS011;9632;51.018;4.284;2023-06-24T03:36:25;9.00;;;3.10;;
18997;SDS011;9632;51.018;4.284;2023-06-24T03:38:50;5.97;;;3.47;;
18997;SDS011;9632;51.018;4.284;2023-06-24T03:41:16;6.75;;;3.28;;
18997;SDS011;9632;51.018;4.284;2023-06-24T03:43:42;5.70;;;3.10;;
18997;SDS011;9632;51.018;4.284;2023-06-24T03:46:08;5.22;;;3.17;;
18997;SDS011;9632;51.018;4.284;2023-06-24T03:48:35;5.13;;;3.10;;
18997;SDS011;9632;51.018;4.284;2023-06-24T03:51:00;5.40;;;2.97;;
18997;SDS011;9632;51.018;4.284;2023-06-24T03:53:26;4.78;;;3.38;;
18997;SDS011;9632;51.018;4.284;2023-06-24T03:55:52;8.55;;;3.60;;
18997;SDS011;9632;51.018;4.284;2023-06-24T03:58:17;4.32;;;2.92;;
18997;SDS011;9632;51.018;4.284;2023-06-24T04:00:45;5.78;;;3.00;;
18997;SDS011;9632;51.018;4.284;2023-06-24T04:03:14;5.82;;;3.40;;
18997;SDS011;9632;51.018;4.284;2023-06-24T04:05:40;6.18;;;3.10;;
18997;SDS011;9632;51.018;4.284;2023-06-24T04:08:06;4.88;;;3.13;;
18997;SDS011;9632;51.018;4.284;2023-06-24T04:10:32;4.22;;;2.83;;
18997;SDS011;9632;51.018;4.284;2023-06-24T04:12:58;4.03;;;2.78;;
18997;SDS011;9632;51.018;4.284;2023-06-24T04:15:24;5.85;;;3.10;;
18997;SDS011;9632;51.018;4.284;2023-06-24T04:17:49;5.38;;;3.25;;
18997;SDS011;9632;51.018;4.284;2023-06-24T04:20:15;6.45;;;3.08;;
18997;SDS011;9632;51.018;4.284;2023-06-24T04:22:41;6.03;;;2.97;;
18997;SDS011;9632;51.018;4.284;2023-06-24T04:25:07;8.07;;;3.67;;
18997;SDS011;9632;51.018;4.284;2023-06-24T04:27:33;4.82;;;2.83;;
18997;SDS011;9632;51.018;4.284;2023-06-24T04:29:59;5.07;;;3.22;;
18997;SDS011;9632;51.018;4.284;2023-06-24T04:32:26;6.95;;;3.42;;
18997;SDS011;9632;51.018;4.284;2023-06-24T04:34:51;8.50;;;3.00;;
18997;SDS011;9632;51.018;4.284;2023-06-24T04:37:17;4.57;;;3.08;;
18997;SDS011;9632;51.018;4.284;2023-06-24T04:39:43;6.60;;;2.90;;
18997;SDS011;9632;51.018;4.284;2023-06-24T04:42:09;4.80;;;3.15;;
18997;SDS011;9632;51.018;4.284;2023-06-24T04:44:35;5.20;;;3.38;;
18997;SDS011;9632;51.018;4.284;2023-06-24T04:47:01;5.88;;;2.83;;
18997;SDS011;9632;51.018;4.284;2023-06-24T04:49:27;5.07;;;2.97;;
18997;SDS011;9632;51.018;4.284;2023-06-24T04:51:53;6.05;;;2.67;;
18997;SDS011;9632;51.018;4.284;2023-06-24T04:54:19;6.53;;;2.90;;
18997;SDS011;9632;51.018;4.284;2023-06-24T04:56:44;8.52;;;3.40;;
18997;SDS011;9632;51.018;4.284;2023-06-24T04:59:10;7.00;;;2.83;;
18997;SDS011;9632;51.018;4.284;2023-06-24T05:01:36;6.43;;;3.10;;
18997;SDS011;9632;51.018;4.284;2023-06-24T05:04:02;5.53;;;3.25;;
18997;SDS011;9632;51.018;4.284;2023-06-24T05:06:28;4.85;;;2.92;;
18997;SDS011;9632;51.018;4.284;2023-06-24T05:08:53;7.32;;;3.50;;
18997;SDS011;9632;51.018;4.284;2023-06-24T05:11:19;7.28;;;3.20;;
18997;SDS011;9632;51.018;4.284;2023-06-24T05:13:45;9.65;;;3.67;;
18997;SDS011;9632;51.018;4.284;2023-06-24T05:16:10;6.78;;;3.00;;
18997;SDS011;9632;51.018;4.284;2023-06-24T05:18:36;6.15;;;3.35;;
18997;SDS011;9632;51.018;4.284;2023-06-24T05:21:01;6.03;;;3.30;;
18997;SDS011;9632;51.018;4.284;2023-06-24T05:23:27;6.13;;;3.08;;
18997;SDS011;9632;51.018;4.284;2023-06-24T05:25:53;6.28;;;3.22;;
18997;SDS011;9632;51.018;4.284;2023-06-24T05:28:18;8.20;;;2.85;;
18997;SDS011;9632;51.018;4.284;2023-06-24T05:30:44;7.90;;;3.10;;
18997;SDS011;9632;51.018;4.284;2023-06-24T05:33:11;8.43;;;3.30;;
18997;SDS011;9632;51.018;4.284;2023-06-24T05:35:36;6.65;;;2.95;;
18997;SDS011;9632;51.018;4.284;2023-06-24T05:38:05;5.40;;;3.15;;
18997;SDS011;9632;51.018;4.284;2023-06-24T05:40:31;6.05;;;3.00;;
18997;SDS011;9632;51.018;4.284;2023-06-24T05:42:57;6.80;;;3.03;;
18997;SDS011;9632;51.018;4.284;2023-06-24T05:45:22;9.00;;;3.47;;
18997;SDS011;9632;51.018;4.284;2023-06-24T05:47:48;6.45;;;3.75;;
18997;SDS011;9632;51.018;4.284;2023-06-24T05:50:13;9.18;;;3.35;;
18997;SDS011;9632;51.018;4.284;2023-06-24T05:52:39;8.18;;;3.17;;
18997;SDS011;9632;51.018;4.284;2023-06-24T05:55:05;7.90;;;3.17;;
18997;SDS011;9632;51.018;4.284;2023-06-24T05:57:31;7.28;;;3.03;;
18997;SDS011;9632;51.018;4.284;2023-06-24T05:59:56;8.07;;;4.05;;
18997;SDS011;9632;51.018;4.284;2023-06-24T06:02:22;7.22;;;3.60;;
18997;SDS011;9632;51.018;4.284;2023-06-24T06:04:47;10.23;;;3.45;;
18997;SDS011;9632;51.018;4.284;2023-06-24T06:07:13;5.93;;;3.40;;
18997;SDS011;9632;51.018;4.284;2023-06-24T06:09:39;7.53;;;3.70;;
18997;SDS011;9632;51.018;4.284;2023-06-24T06:12:04;5.07;;;3.25;;
18997;SDS011;9632;51.018;4.284;2023-06-24T06:14:32;6.28;;;3.55;;
18997;SDS011;9632;51.018;4.284;2023-06-24T06:16:57;5.40;;;3.20;;
18997;SDS011;9632;51.018;4.284;2023-06-24T06:19:23;6.50;;;3.42;;
18997;SDS011;9632;51.018;4.284;2023-06-24T06:21:49;5.28;;;3.05;;
18997;SDS011;9632;51.018;4.284;2023-06-24T06:24:15;4.57;;;3.30;;
18997;SDS011;9632;51.018;4.284;2023-06-24T06:26:44;7.85;;;3.60;;
18997;SDS011;9632;51.018;4.284;2023-06-24T06:29:10;7.18;;;3.70;;
18997;SDS011;9632;51.018;4.284;2023-06-24T06:31:36;6.15;;;3.78;;
18997;SDS011;9632;51.018;4.284;2023-06-24T06:34:02;5.97;;;2.83;;
18997;SDS011;9632;51.018;4.284;2023-06-24T06:36:28;5.05;;;3.17;;
18997;SDS011;9632;51.018;4.284;2023-06-24T06:38:53;5.72;;;3.40;;
18997;SDS011;9632;51.018;4.284;2023-06-24T06:41:19;8.35;;;3.88;;
18997;SDS011;9632;51.018;4.284;2023-06-24T06:43:49;8.23;;;3.47;;
18997;SDS011;9632;51.018;4.284;2023-06-24T06:46:16;8.30;;;3.90;;
18997;SDS011;9632;51.018;4.284;2023-06-24T06:48:42;5.53;;;3.53;;
18997;SDS011;9632;51.018;4.284;2023-06-24T06:51:07;8.05;;;3.25;;
18997;SDS011;9632;51.018;4.284;2023-06-24T06:53:33;8.52;;;3.80;;
18997;SDS011;9632;51.018;4.284;2023-06-24T06:55:58;8.43;;;4.03;;
18997;SDS011;9632;51.018;4.284;2023-06-24T06:58:24;5.35;;;3.28;;
18997;SDS011;9632;51.018;4.284;2023-06-24T07:00:50;6.35;;;3.45;;
18997;SDS011;9632;51.018;4.284;2023-06-24T07:03:15;6.75;;;3.45;;
18997;SDS011;9632;51.018;4.284;2023-06-24T07:05:41;6.10;;;3.70;;
18997;SDS011;9632;51.018;4.284;2023-06-24T07:08:07;5.40;;;3.35;;
18997;SDS011;9632;51.018;4.284;2023-06-24T07:10:32;5.57;;;3.58;;
18997;SDS011;9632;51.018;4.284;2023-06-24T07:12:58;6.70;;;3.95;;
18997;SDS011;9632;51.018;4.284;2023-06-24T07:15:25;8.18;;;3.60;;
18997;SDS011;9632;51.018;4.284;2023-06-24T07:17:51;7.63;;;3.33;;
18997;SDS011;9632;51.018;4.284;2023-06-24T07:20:17;8.40;;;4.25;;
18997;SDS011;9632;51.018;4.284;2023-06-24T07:22:44;5.53;;;3.55;;
18997;SDS011;9632;51.018;4.284;2023-06-24T07:25:28;7.80;;;4.05;;
18997;SDS011;9632;51.018;4.284;2023-06-24T07:27:54;5.00;;;3.47;;
18997;SDS011;9632;51.018;4.284;2023-06-24T07:30:20;7.47;;;3.90;;
18997;SDS011;9632;51.018;4.284;2023-06-24T07:32:45;7.85;;;3.70;;
18997;SDS011;9632;51.018;4.284;2023-06-24T07:35:11;5.80;;;3.72;;
18997;SDS011;9632;51.018;4.284;2023-06-24T07:37:38;7.05;;;3.72;;
18997;SDS011;9632;51.018;4.284;2023-06-24T07:40:04;8.02;;;3.97;;
18997;SDS011;9632;51.018;4.284;2023-06-24T07:42:34;7.68;;;3.88;;
18997;SDS011;9632;51.018;4.284;2023-06-24T07:44:59;7.97;;;3.92;;
18997;SDS011;9632;51.018;4.284;2023-06-24T07:47:25;7.05;;;3.42;;
18997;SDS011;9632;51.018;4.284;2023-06-24T07:49:51;5.63;;;3.30;;
18997;SDS011;9632;51.018;4.284;2023-06-24T07:52:16;7.15;;;3.53;;
18997;SDS011;9632;51.018;4.284;2023-06-24T07:54:42;7.28;;;3.55;;
18997;SDS011;9632;51.018;4.284;2023-06-24T07:57:08;5.57;;;2.83;;
18997;SDS011;9632;51.018;4.284;2023-06-24T07:59:34;6.18;;;3.75;;
18997;SDS011;9632;51.018;4.284;2023-06-24T08:01:59;5.68;;;3.60;;
18997;SDS011;9632;51.018;4.284;2023-06-24T08:04:25;6.30;;;2.92;;
18997;SDS011;9632;51.018;4.284;2023-06-24T08:06:51;6.75;;;3.45;;
18997;SDS011;9632;51.018;4.284;2023-06-24T08:09:17;6.55;;;3.13;;
18997;SDS011;9632;51.018;4.284;2023-06-24T08:11:43;7.47;;;3.28;;
18997;SDS011;9632;51.018;4.284;2023-06-24T08:14:08;5.55;;;3.30;;
18997;SDS011;9632;51.018;4.284;2023-06-24T08:16:34;7.35;;;3.22;;
18997;SDS011;9632;51.018;4.284;2023-06-24T08:19:00;7.20;;;3.42;;
18997;SDS011;9632;51.018;4.284;2023-06-24T08:21:25;4.80;;;3.03;;
18997;SDS011;9632;51.018;4.284;2023-06-24T08:23:51;6.32;;;3.50;;
18997;SDS011;9632;51.018;4.284;2023-06-24T08:26:17;5.25;;;3.10;;
18997;SDS011;9632;51.018;4.284;2023-06-24T08:28:46;5.40;;;2.85;;
18997;SDS011;9632;51.018;4.284;2023-06-24T08:31:12;5.10;;;2.70;;
18997;SDS011;9632;51.018;4.284;2023-06-24T08:33:38;5.18;;;2.90;;
18997;SDS011;9632;51.018;4.284;2023-06-24T08:36:03;6.65;;;2.67;;
18997;SDS011;9632;51.018;4.284;2023-06-24T08:38:29;6.95;;;2.78;;
18997;SDS011;9632;51.018;4.284;2023-06-24T08:40:55;4.90;;;2.85;;
18997;SDS011;9632;51.018;4.284;2023-06-24T08:43:21;5.90;;;2.90;;
18997;SDS011;9632;51.018;4.284;2023-06-24T08:45:47;4.53;;;2.28;;
18997;SDS011;9632;51.018;4.284;2023-06-24T08:48:15;4.50;;;2.47;;
18997;SDS011;9632;51.018;4.284;2023-06-24T08:50:43;6.82;;;2.63;;
18997;SDS011;9632;51.018;4.284;2023-06-24T08:53:11;3.08;;;2.22;;
18997;SDS011;9632;51.018;4.284;2023-06-24T08:55:43;10.45;;;2.72;;
18997;SDS011;9632;51.018;4.284;2023-06-24T08:58:09;4.65;;;2.30;;
18997;SDS011;9632;51.018;4.284;2023-06-24T09:00:34;5.68;;;2.25;;
18997;SDS011;9632;51.018;4.284;2023-06-24T09:03:01;4.60;;;2.00;;
18997;SDS011;9632;51.018;4.284;2023-06-24T09:05:27;3.88;;;2.10;;
18997;SDS011;9632;51.018;4.284;2023-06-24T09:07:53;3.53;;;2.13;;
18997;SDS011;9632;51.018;4.284;2023-06-24T09:10:35;4.47;;;2.25;;
18997;SDS011;9632;51.018;4.284;2023-06-24T09:13:02;3.70;;;1.83;;
18997;SDS011;9632;51.018;4.284;2023-06-24T09:15:31;3.97;;;1.70;;
18997;SDS011;9632;51.018;4.284;2023-06-24T09:18:01;6.47;;;2.20;;
18997;SDS011;9632;51.018;4.284;2023-06-24T09:20:29;2.95;;;1.80;;
18997;SDS011;9632;51.018;4.284;2023-06-24T09:22:59;5.18;;;2.17;;
18997;SDS011;9632;51.018;4.284;2023-06-24T09:25:26;4.43;;;1.98;;
18997;SDS011;9632;51.018;4.284;2023-06-24T09:27:52;6.13;;;1.85;;
18997;SDS011;9632;51.018;4.284;2023-06-24T09:32:50;2.80;;;1.88;;
18997;SDS011;9632;51.018;4.284;2023-06-24T09:35:17;2.28;;;1.75;;
18997;SDS011;9632;51.018;4.284;2023-06-24T09:37:55;6.25;;;2.20;;
18997;SDS011;9632;51.018;4.284;2023-06-24T09:40:22;2.85;;;1.70;;
18997;SDS011;9632;51.018;4.284;2023-06-24T09:42:55;2.90;;;1.35;;
18997;SDS011;9632;51.018;4.284;2023-06-24T09:45:25;5.40;;;1.48;;
18997;SDS011;9632;51.018;4.284;2023-06-24T09:47:52;7.45;;;1.77;;
18997;SDS011;9632;51.018;4.284;2023-06-24T09:50:19;2.88;;;1.63;;
18997;SDS011;9632;51.018;4.284;2023-06-24T09:52:45;4.10;;;1.52;;
18997;SDS011;9632;51.018;4.284;2023-06-24T09:55:13;3.35;;;1.50;;
18997;SDS011;9632;51.018;4.284;2023-06-24T09:57:40;2.08;;;1.40;;
18997;SDS011;9632;51.018;4.284;2023-06-24T10:00:09;3.20;;;1.40;;
18997;SDS011;9632;51.018;4.284;2023-06-24T10:02:35;6.32;;;1.85;;
18997;SDS011;9632;51.018;4.284;2023-06-24T10:05:01;4.85;;;1.90;;
18997;SDS011;9632;51.018;4.284;2023-06-24T10:07:28;6.03;;;1.70;;
18997;SDS011;9632;51.018;4.284;2023-06-24T10:09:54;3.30;;;1.73;;
18997;SDS011;9632;51.018;4.284;2023-06-24T10:12:20;3.20;;;1.60;;
18997;SDS011;9632;51.018;4.284;2023-06-24T10:14:46;4.32;;;1.80;;
18997;SDS011;9632;51.018;4.284;2023-06-24T10:17:11;3.20;;;1.92;;
18997;SDS011;9632;51.018;4.284;2023-06-24T10:19:38;4.50;;;2.08;;
18997;SDS011;9632;51.018;4.284;2023-06-24T10:22:08;3.08;;;1.58;;
18997;SDS011;9632;51.018;4.284;2023-06-24T10:24:36;4.10;;;1.70;;
18997;SDS011;9632;51.018;4.284;2023-06-24T10:27:14;3.20;;;1.60;;
18997;SDS011;9632;51.018;4.284;2023-06-24T10:29:45;3.20;;;1.35;;
18997;SDS011;9632;51.018;4.284;2023-06-24T10:32:11;4.25;;;1.70;;
18997;SDS011;9632;51.018;4.284;2023-06-24T10:39:38;2.33;;;1.60;;
18997;SDS011;9632;51.018;4.284;2023-06-24T10:44:57;3.40;;;1.40;;
18997;SDS011;9632;51.018;4.284;2023-06-24T10:47:44;2.65;;;1.40;;
18997;SDS011;9632;51.018;4.284;2023-06-24T10:50:14;2.55;;;1.30;;
18997;SDS011;9632;51.018;4.284;2023-06-24T10:52:45;3.53;;;1.50;;
18997;SDS011;9632;51.018;4.284;2023-06-24T10:55:18;2.50;;;1.10;;
18997;SDS011;9632;51.018;4.284;2023-06-24T10:57:44;3.08;;;1.35;;
18997;SDS011;9632;51.018;4.284;2023-06-24T11:00:11;1.75;;;1.40;;
18997;SDS011;9632;51.018;4.284;2023-06-24T11:02:37;2.05;;;1.42;;
18997;SDS011;9632;51.018;4.284;2023-06-24T11:05:04;2.72;;;1.50;;
18997;SDS011;9632;51.018;4.284;2023-06-24T11:07:32;2.25;;;1.40;;
18997;SDS011;9632;51.018;4.284;2023-06-24T11:12:38;1.98;;;1.40;;
18997;SDS011;9632;51.018;4.284;2023-06-24T11:15:05;3.97;;;1.70;;
18997;SDS011;9632;51.018;4.284;2023-06-24T11:17:33;3.85;;;1.65;;
18997;SDS011;9632;51.018;4.284;2023-06-24T11:19:59;3.40;;;1.60;;
18997;SDS011;9632;51.018;4.284;2023-06-24T11:22:26;3.53;;;1.67;;
18997;SDS011;9632;51.018;4.284;2023-06-24T11:24:52;2.90;;;1.60;;
18997;SDS011;9632;51.018;4.284;2023-06-24T11:27:23;2.90;;;1.60;;
18997;SDS011;9632;51.018;4.284;2023-06-24T11:29:51;3.33;;;1.67;;
18997;SDS011;9632;51.018;4.284;2023-06-24T11:32:18;4.53;;;1.70;;
18997;SDS011;9632;51.018;4.284;2023-06-24T11:34:43;5.82;;;1.42;;
18997;SDS011;9632;51.018;4.284;2023-06-24T11:37:12;2.33;;;1.70;;
18997;SDS011;9632;51.018;4.284;2023-06-24T11:40:05;2.72;;;1.55;;
18997;SDS011;9632;51.018;4.284;2023-06-24T11:42:32;4.88;;;1.80;;
18997;SDS011;9632;51.018;4.284;2023-06-24T11:45:14;3.50;;;1.60;;
18997;SDS011;9632;51.018;4.284;2023-06-24T11:47:45;3.80;;;1.98;;
18997;SDS011;9632;51.018;4.284;2023-06-24T11:50:11;4.47;;;1.45;;
18997;SDS011;9632;51.018;4.284;2023-06-24T11:52:48;4.57;;;1.60;;
18997;SDS011;9632;51.018;4.284;2023-06-24T11:55:21;3.33;;;1.52;;
18997;SDS011;9632;51.018;4.284;2023-06-24T12:00:29;1.67;;;1.20;;
18997;SDS011;9632;51.018;4.284;2023-06-24T12:03:06;2.38;;;1.35;;
18997;SDS011;9632;51.018;4.284;2023-06-24T12:05:33;3.70;;;1.65;;
18997;SDS011;9632;51.018;4.284;2023-06-24T12:10:27;3.67;;;1.65;;
18997;SDS011;9632;51.018;4.284;2023-06-24T12:13:00;2.45;;;1.40;;
18997;SDS011;9632;51.018;4.284;2023-06-24T12:15:27;3.38;;;1.45;;
18997;SDS011;9632;51.018;4.284;2023-06-24T12:17:53;3.13;;;1.55;;
18997;SDS011;9632;51.018;4.284;2023-06-24T12:20:19;3.20;;;1.50;;
18997;SDS011;9632;51.018;4.284;2023-06-24T12:22:45;2.10;;;1.20;;
18997;SDS011;9632;51.018;4.284;2023-06-24T12:25:12;3.70;;;1.27;;
18997;SDS011;9632;51.018;4.284;2023-06-24T12:27:38;3.53;;;1.40;;
18997;SDS011;9632;51.018;4.284;2023-06-24T12:30:05;1.48;;;1.20;;
18997;SDS011;9632;51.018;4.284;2023-06-24T12:32:31;1.88;;;1.25;;
18997;SDS011;9632;51.018;4.284;2023-06-24T12:34:57;3.13;;;1.35;;
18997;SDS011;9632;51.018;4.284;2023-06-24T12:37:23;3.22;;;1.33;;
18997;SDS011;9632;51.018;4.284;2023-06-24T12:39:48;1.35;;;1.10;;
18997;SDS011;9632;51.018;4.284;2023-06-24T12:42:16;2.08;;;1.20;;
18997;SDS011;9632;51.018;4.284;2023-06-24T12:44:42;3.72;;;1.35;;
18997;SDS011;9632;51.018;4.284;2023-06-24T12:47:07;1.73;;;1.10;;
18997;SDS011;9632;51.018;4.284;2023-06-24T12:49:33;2.03;;;1.40;;
18997;SDS011;9632;51.018;4.284;2023-06-24T12:51:58;2.33;;;1.20;;
18997;SDS011;9632;51.018;4.284;2023-06-24T12:54:24;2.92;;;1.13;;
18997;SDS011;9632;51.018;4.284;2023-06-24T12:56:50;2.75;;;1.42;;
18997;SDS011;9632;51.018;4.284;2023-06-24T12:59:15;2.17;;;1.00;;
18997;SDS011;9632;51.018;4.284;2023-06-24T13:01:41;1.02;;;0.93;;
18997;SDS011;9632;51.018;4.284;2023-06-24T13:04:09;1.45;;;1.20;;
18997;SDS011;9632;51.018;4.284;2023-06-24T13:06:36;1.98;;;1.30;;
18997;SDS011;9632;51.018;4.284;2023-06-24T13:09:01;2.67;;;1.33;;
18997;SDS011;9632;51.018;4.284;2023-06-24T13:11:27;4.45;;;0.95;;
18997;SDS011;9632;51.018;4.284;2023-06-24T13:13:53;3.80;;;1.20;;
18997;SDS011;9632;51.018;4.284;2023-06-24T13:16:19;3.70;;;1.58;;
18997;SDS011;9632;51.018;4.284;2023-06-24T13:18:45;1.80;;;1.23;;
18997;SDS011;9632;51.018;4.284;2023-06-24T13:21:11;4.38;;;1.35;;
18997;SDS011;9632;51.018;4.284;2023-06-24T13:23:36;2.00;;;1.17;;
18997;SDS011;9632;51.018;4.284;2023-06-24T13:26:03;2.17;;;1.40;;
18997;SDS011;9632;51.018;4.284;2023-06-24T13:28:29;2.03;;;1.38;;
18997;SDS011;9632;51.018;4.284;2023-06-24T13:30:56;2.22;;;1.58;;
18997;SDS011;9632;51.018;4.284;2023-06-24T13:33:22;5.38;;;1.60;;
18997;SDS011;9632;51.018;4.284;2023-06-24T13:35:48;2.35;;;1.50;;
18997;SDS011;9632;51.018;4.284;2023-06-24T13:38:16;1.58;;;1.20;;
18997;SDS011;9632;51.018;4.284;2023-06-24T13:40:42;3.17;;;1.80;;
18997;SDS011;9632;51.018;4.284;2023-06-24T13:43:08;2.80;;;1.63;;
18997;SDS011;9632;51.018;4.284;2023-06-24T13:45:34;2.00;;;1.27;;
18997;SDS011;9632;51.018;4.284;2023-06-24T13:47:59;4.10;;;1.30;;
18997;SDS011;9632;51.018;4.284;2023-06-24T13:50:25;1.90;;;1.30;;
18997;SDS011;9632;51.018;4.284;2023-06-24T13:52:51;3.35;;;1.40;;
18997;SDS011;9632;51.018;4.284;2023-06-24T13:55:16;1.75;;;1.40;;
18997;SDS011;9632;51.018;4.284;2023-06-24T13:57:42;2.97;;;1.60;;
18997;SDS011;9632;51.018;4.284;2023-06-24T14:00:08;2.55;;;1.60;;
18997;SDS011;9632;51.018;4.284;2023-06-24T14:02:34;2.30;;;1.63;;
18997;SDS011;9632;51.018;4.284;2023-06-24T14:05:00;3.33;;;1.65;;
18997;SDS011;9632;51.018;4.284;2023-06-24T14:07:26;1.92;;;1.30;;
18997;SDS011;9632;51.018;4.284;2023-06-24T14:09:51;3.42;;;1.75;;
18997;SDS011;9632;51.018;4.284;2023-06-24T14:12:17;4.15;;;1.70;;
18997;SDS011;9632;51.018;4.284;2023-06-24T14:14:43;3.63;;;1.70;;
18997;SDS011;9632;51.018;4.284;2023-06-24T14:17:08;2.13;;;1.50;;
18997;SDS011;9632;51.018;4.284;2023-06-24T14:19:36;2.33;;;1.80;;
18997;SDS011;9632;51.018;4.284;2023-06-24T14:22:03;2.55;;;1.60;;
18997;SDS011;9632;51.018;4.284;2023-06-24T14:24:29;3.65;;;2.15;;
18997;SDS011;9632;51.018;4.284;2023-06-24T14:26:54;3.28;;;1.73;;
18997;SDS011;9632;51.018;4.284;2023-06-24T14:29:20;3.97;;;1.90;;
18997;SDS011;9632;51.018;4.284;2023-06-24T14:31:46;2.45;;;1.40;;
18997;SDS011;9632;51.018;4.284;2023-06-24T14:34:11;2.72;;;1.55;;
18997;SDS011;9632;51.018;4.284;2023-06-24T14:36:37;2.33;;;1.60;;
18997;SDS011;9632;51.018;4.284;2023-06-24T14:39:03;3.83;;;1.70;;
18997;SDS011;9632;51.018;4.284;2023-06-24T14:41:29;3.92;;;1.63;;
18997;SDS011;9632;51.018;4.284;2023-06-24T14:43:54;3.42;;;1.52;;
18997;SDS011;9632;51.018;4.284;2023-06-24T14:46:20;3.50;;;1.60;;
18997;SDS011;9632;51.018;4.284;2023-06-24T14:48:46;3.78;;;1.75;;
18997;SDS011;9632;51.018;4.284;2023-06-24T14:51:11;3.65;;;2.15;;
18997;SDS011;9632;51.018;4.284;2023-06-24T14:53:37;3.55;;;1.63;;
18997;SDS011;9632;51.018;4.284;2023-06-24T14:56:03;2.25;;;1.55;;
18997;SDS011;9632;51.018;4.284;2023-06-24T14:58:28;2.08;;;1.67;;
18997;SDS011;9632;51.018;4.284;2023-06-24T15:00:54;6.45;;;1.80;;
18997;SDS011;9632;51.018;4.284;2023-06-24T15:03:20;3.75;;;1.80;;
18997;SDS011;9632;51.018;4.284;2023-06-24T15:05:45;2.83;;;1.60;;
18997;SDS011;9632;51.018;4.284;2023-06-24T15:08:11;2.72;;;1.88;;
18997;SDS011;9632;51.018;4.284;2023-06-24T15:10:37;3.78;;;1.95;;
18997;SDS011;9632;51.018;4.284;2023-06-24T15:13:03;2.60;;;1.60;;
18997;SDS011;9632;51.018;4.284;2023-06-24T15:15:30;4.57;;;1.90;;
18997;SDS011;9632;51.018;4.284;2023-06-24T15:17:56;3.22;;;2.08;;
18997;SDS011;9632;51.018;4.284;2023-06-24T15:20:21;2.97;;;1.85;;
18997;SDS011;9632;51.018;4.284;2023-06-24T15:22:47;3.33;;;1.73;;
18997;SDS011;9632;51.018;4.284;2023-06-24T15:25:12;2.95;;;1.83;;
18997;SDS011;9632;51.018;4.284;2023-06-24T15:27:38;2.35;;;1.85;;